SCCY/GXQ METAR and TAF weather

Enter ICAO airport designator
Station Type Date Time Source
SCCY METAR 2019/09/21 00:00 UTC NOAA

SCCY 210000Z VRB07G17KT 9999 -SHRA BKN033 06/M00 Q1011


Station Type Date Time Source
SCCY Decoded METAR 2019/09/21 00:00 UTC NOAA

Coyhaique, Chile (SCCY) 45-35S 072-07W
Sep 20, 2019 - 08:00 PM EDT / 2019.09.21 0000 UTC
Wind: Variable at 8 MPH (7 KT) gusting to 20 MPH (17 KT):0
Visibility: greater than 7 mile(s):0
Sky conditions: mostly cloudy
Weather: light rain showers
Temperature: 42 F (6 C)
Dew Point: 32 F (0 C)
Relative Humidity: 65%
Pressure (altimeter): 29.85 in. Hg (1011 hPa)
ob: SCCY 210000Z VRB07G17KT 9999 -SHRA BKN033 06/M00 Q1011
cycle: 0

Station Type Date Time Source
SCCY TAF 2019/09/20 12:33 UTC NOAA

TAF SCCY 201036Z 2012/2024 30010G20KT 9000 -SHRA SCT030 BKN040 TN06/2012Z TX10/2018Z
BECMG 2014/2016 FEW030 SCT040
TEMPO 2015/2019 30010G30KT 7000 -SHRA BKN035
BECMG 2019/2021 30013KT
BECMG 2022/2024 30008KT

Example: see airport list